NCAR-RAP Real-Time Weather Data

Output produced by METARs form (14 October 2019  22:46 UTC)
found at http://weather.rap.ucar.edu/surface/
 
KABE 142151Z 28007KT 10SM CLR 20/04 A2994 RMK AO2 SLP139 T02000044 $
KABE 142051Z 24010KT 10SM CLR 22/04 A2993 RMK AO2 SLP134 60000 T02170044 56007 $
KABE 141951Z 25012KT 10SM CLR 22/05 A2993 RMK AO2 SLP133 T02220050 $